sensor_id;sensor_type;location;lat;lon;timestamp;P1;durP1;ratioP1;P2;durP2;ratioP2
1054;SDS011;516;51.482;7.120;2022-11-23T00:03:51;5.47;;;2.10;;
1054;SDS011;516;51.482;7.120;2022-11-23T00:09:40;8.17;;;2.47;;
1054;SDS011;516;51.482;7.120;2022-11-23T00:15:27;6.00;;;2.90;;
1054;SDS011;516;51.482;7.120;2022-11-23T00:30:50;5.30;;;2.93;;
1054;SDS011;516;51.482;7.120;2022-11-23T00:33:16;4.30;;;2.30;;
1054;SDS011;516;51.482;7.120;2022-11-23T00:35:42;6.30;;;2.60;;
1054;SDS011;516;51.482;7.120;2022-11-23T00:41:51;7.87;;;2.57;;
1054;SDS011;516;51.482;7.120;2022-11-23T00:47:39;3.63;;;2.50;;
1054;SDS011;516;51.482;7.120;2022-11-23T00:53:26;4.90;;;2.07;;
1054;SDS011;516;51.482;7.120;2022-11-23T00:59:14;4.93;;;3.07;;
1054;SDS011;516;51.482;7.120;2022-11-23T01:05:02;5.93;;;3.00;;
1054;SDS011;516;51.482;7.120;2022-11-23T01:10:52;6.63;;;2.50;;
1054;SDS011;516;51.482;7.120;2022-11-23T01:16:44;3.93;;;2.17;;
1054;SDS011;516;51.482;7.120;2022-11-23T01:22:31;4.13;;;2.20;;
1054;SDS011;516;51.482;7.120;2022-11-23T01:28:21;6.27;;;2.97;;
1054;SDS011;516;51.482;7.120;2022-11-23T01:37:46;7.70;;;3.10;;
1054;SDS011;516;51.482;7.120;2022-11-23T01:43:33;5.13;;;2.67;;
1054;SDS011;516;51.482;7.120;2022-11-23T01:49:20;7.13;;;2.13;;
1054;SDS011;516;51.482;7.120;2022-11-23T01:55:09;5.57;;;2.13;;
1054;SDS011;516;51.482;7.120;2022-11-23T02:00:56;5.83;;;2.90;;
1054;SDS011;516;51.482;7.120;2022-11-23T02:06:44;3.67;;;2.17;;
1054;SDS011;516;51.482;7.120;2022-11-23T02:12:33;3.90;;;2.40;;
1054;SDS011;516;51.482;7.120;2022-11-23T02:18:21;10.03;;;2.60;;
1054;SDS011;516;51.482;7.120;2022-11-23T02:24:13;9.00;;;2.80;;
1054;SDS011;516;51.482;7.120;2022-11-23T02:30:44;5.10;;;2.80;;
1054;SDS011;516;51.482;7.120;2022-11-23T02:46:56;4.20;;;2.50;;
1054;SDS011;516;51.482;7.120;2022-11-23T02:52:43;6.13;;;2.60;;
1054;SDS011;516;51.482;7.120;2022-11-23T02:58:30;4.03;;;2.57;;
1054;SDS011;516;51.482;7.120;2022-11-23T03:04:18;5.67;;;2.93;;
1054;SDS011;516;51.482;7.120;2022-11-23T03:10:05;3.73;;;2.23;;
1054;SDS011;516;51.482;7.120;2022-11-23T03:15:34;2.50;;;2.17;;
1054;SDS011;516;51.482;7.120;2022-11-23T03:21:22;3.83;;;2.00;;
1054;SDS011;516;51.482;7.120;2022-11-23T03:27:10;3.73;;;1.77;;
1054;SDS011;516;51.482;7.120;2022-11-23T03:32:58;5.00;;;2.23;;
1054;SDS011;516;51.482;7.120;2022-11-23T03:39:02;4.33;;;2.20;;
1054;SDS011;516;51.482;7.120;2022-11-23T03:44:49;5.67;;;2.13;;
1054;SDS011;516;51.482;7.120;2022-11-23T03:50:36;3.70;;;2.03;;
1054;SDS011;516;51.482;7.120;2022-11-23T03:56:23;5.50;;;2.27;;
1054;SDS011;516;51.482;7.120;2022-11-23T04:02:10;7.90;;;2.40;;
1054;SDS011;516;51.482;7.120;2022-11-23T04:07:58;6.47;;;3.27;;
1054;SDS011;516;51.482;7.120;2022-11-23T04:13:45;8.47;;;2.80;;
1054;SDS011;516;51.482;7.120;2022-11-23T04:19:38;3.63;;;2.63;;
1054;SDS011;516;51.482;7.120;2022-11-23T04:25:26;7.80;;;3.30;;
1054;SDS011;516;51.482;7.120;2022-11-23T04:31:14;6.10;;;3.17;;
1054;SDS011;516;51.482;7.120;2022-11-23T04:37:02;7.50;;;3.10;;
1054;SDS011;516;51.482;7.120;2022-11-23T04:42:50;7.17;;;3.40;;
1054;SDS011;516;51.482;7.120;2022-11-23T04:48:39;8.17;;;4.20;;
1054;SDS011;516;51.482;7.120;2022-11-23T04:54:26;5.80;;;3.50;;
1054;SDS011;516;51.482;7.120;2022-11-23T05:00:14;10.70;;;3.87;;
1054;SDS011;516;51.482;7.120;2022-11-23T05:06:02;5.40;;;4.00;;
1054;SDS011;516;51.482;7.120;2022-11-23T05:11:50;9.37;;;3.97;;
1054;SDS011;516;51.482;7.120;2022-11-23T05:17:38;11.10;;;3.60;;
1054;SDS011;516;51.482;7.120;2022-11-23T05:23:26;8.50;;;3.50;;
1054;SDS011;516;51.482;7.120;2022-11-23T05:29:14;7.13;;;4.03;;
1054;SDS011;516;51.482;7.120;2022-11-23T05:35:01;6.00;;;3.73;;
1054;SDS011;516;51.482;7.120;2022-11-23T05:40:48;12.73;;;4.00;;
1054;SDS011;516;51.482;7.120;2022-11-23T05:49:34;16.53;;;4.30;;
1054;SDS011;516;51.482;7.120;2022-11-23T05:55:21;5.13;;;2.47;;
1054;SDS011;516;51.482;7.120;2022-11-23T06:04:30;6.30;;;3.57;;
1054;SDS011;516;51.482;7.120;2022-11-23T06:10:20;6.23;;;3.43;;
1054;SDS011;516;51.482;7.120;2022-11-23T06:16:07;12.87;;;4.07;;
1054;SDS011;516;51.482;7.120;2022-11-23T06:21:55;7.83;;;3.37;;
1054;SDS011;516;51.482;7.120;2022-11-23T06:27:52;9.90;;;3.00;;
1054;SDS011;516;51.482;7.120;2022-11-23T06:33:41;5.67;;;3.03;;
1054;SDS011;516;51.482;7.120;2022-11-23T06:49:34;7.20;;;3.03;;
1054;SDS011;516;51.482;7.120;2022-11-23T06:55:22;8.83;;;2.87;;
1054;SDS011;516;51.482;7.120;2022-11-23T07:01:10;7.90;;;3.87;;
1054;SDS011;516;51.482;7.120;2022-11-23T07:06:58;10.83;;;4.30;;
1054;SDS011;516;51.482;7.120;2022-11-23T07:12:46;8.63;;;3.00;;
1054;SDS011;516;51.482;7.120;2022-11-23T07:18:34;13.43;;;4.20;;
1054;SDS011;516;51.482;7.120;2022-11-23T07:24:21;8.03;;;3.43;;
1054;SDS011;516;51.482;7.120;2022-11-23T07:30:09;4.47;;;2.37;;
1054;SDS011;516;51.482;7.120;2022-11-23T07:36:01;8.40;;;3.07;;
1054;SDS011;516;51.482;7.120;2022-11-23T07:41:41;9.40;;;4.00;;
1054;SDS011;516;51.482;7.120;2022-11-23T07:47:31;8.17;;;3.57;;
1054;SDS011;516;51.482;7.120;2022-11-23T07:53:19;8.30;;;3.43;;
1054;SDS011;516;51.482;7.120;2022-11-23T07:59:07;6.03;;;2.83;;
1054;SDS011;516;51.482;7.120;2022-11-23T08:04:55;6.77;;;2.67;;
1054;SDS011;516;51.482;7.120;2022-11-23T08:10:42;3.87;;;3.00;;
1054;SDS011;516;51.482;7.120;2022-11-23T08:16:30;3.17;;;2.40;;
1054;SDS011;516;51.482;7.120;2022-11-23T08:22:18;6.47;;;2.80;;
1054;SDS011;516;51.482;7.120;2022-11-23T08:28:08;7.37;;;3.37;;
1054;SDS011;516;51.482;7.120;2022-11-23T08:33:58;8.40;;;4.13;;
1054;SDS011;516;51.482;7.120;2022-11-23T08:39:48;4.53;;;3.10;;
1054;SDS011;516;51.482;7.120;2022-11-23T08:45:36;4.23;;;3.17;;
1054;SDS011;516;51.482;7.120;2022-11-23T08:51:23;8.50;;;4.23;;
1054;SDS011;516;51.482;7.120;2022-11-23T09:00:32;7.00;;;3.53;;
1054;SDS011;516;51.482;7.120;2022-11-23T09:06:19;7.03;;;3.80;;
1054;SDS011;516;51.482;7.120;2022-11-23T09:12:12;4.73;;;3.80;;
1054;SDS011;516;51.482;7.120;2022-11-23T09:17:41;3.73;;;2.90;;
1054;SDS011;516;51.482;7.120;2022-11-23T09:23:29;8.27;;;3.63;;
1054;SDS011;516;51.482;7.120;2022-11-23T09:29:20;8.97;;;4.40;;
1054;SDS011;516;51.482;7.120;2022-11-23T09:35:08;6.50;;;3.77;;
1054;SDS011;516;51.482;7.120;2022-11-23T09:50:48;10.07;;;4.37;;
1054;SDS011;516;51.482;7.120;2022-11-23T09:56:38;11.53;;;4.97;;
1054;SDS011;516;51.482;7.120;2022-11-23T10:02:28;9.30;;;4.77;;
1054;SDS011;516;51.482;7.120;2022-11-23T10:27:59;16.97;;;7.13;;
1054;SDS011;516;51.482;7.120;2022-11-23T10:34:01;6.53;;;5.70;;
1054;SDS011;516;51.482;7.120;2022-11-23T10:39:54;10.87;;;7.20;;
1054;SDS011;516;51.482;7.120;2022-11-23T10:45:41;9.63;;;6.60;;
1054;SDS011;516;51.482;7.120;2022-11-23T10:51:29;8.33;;;5.63;;
1054;SDS011;516;51.482;7.120;2022-11-23T11:03:22;6.97;;;5.63;;
1054;SDS011;516;51.482;7.120;2022-11-23T11:09:19;7.13;;;6.07;;
1054;SDS011;516;51.482;7.120;2022-11-23T11:34:54;7.03;;;5.40;;
1054;SDS011;516;51.482;7.120;2022-11-23T11:51:06;8.60;;;6.17;;
1054;SDS011;516;51.482;7.120;2022-11-23T12:09:48;10.70;;;6.80;;
1054;SDS011;516;51.482;7.120;2022-11-23T12:15:43;7.43;;;6.07;;
1054;SDS011;516;51.482;7.120;2022-11-23T12:40:28;11.03;;;6.80;;
1054;SDS011;516;51.482;7.120;2022-11-23T12:58:43;9.83;;;6.20;;
1054;SDS011;516;51.482;7.120;2022-11-23T13:11:16;6.33;;;5.80;;
1054;SDS011;516;51.482;7.120;2022-11-23T13:23:36;11.80;;;6.30;;
1054;SDS011;516;51.482;7.120;2022-11-23T13:47:28;15.70;;;6.70;;
1054;SDS011;516;51.482;7.120;2022-11-23T13:53:18;6.93;;;6.43;;
1054;SDS011;516;51.482;7.120;2022-11-23T14:31:22;7.33;;;6.73;;
1054;SDS011;516;51.482;7.120;2022-11-23T14:41:42;6.50;;;5.70;;
1054;SDS011;516;51.482;7.120;2022-11-23T14:44:11;9.80;;;6.73;;
1054;SDS011;516;51.482;7.120;2022-11-23T14:50:03;6.73;;;6.13;;
1054;SDS011;516;51.482;7.120;2022-11-23T14:55:51;7.57;;;6.70;;
1054;SDS011;516;51.482;7.120;2022-11-23T15:01:44;17.93;;;8.93;;
1054;SDS011;516;51.482;7.120;2022-11-23T15:05:06;9.50;;;8.70;;
1054;SDS011;516;51.482;7.120;2022-11-23T15:08:09;7.60;;;7.10;;
1054;SDS011;516;51.482;7.120;2022-11-23T15:13:41;8.07;;;6.97;;
1054;SDS011;516;51.482;7.120;2022-11-23T15:19:30;7.30;;;6.60;;
1054;SDS011;516;51.482;7.120;2022-11-23T15:25:17;8.97;;;6.67;;
1054;SDS011;516;51.482;7.120;2022-11-23T15:37:59;6.30;;;5.73;;
1054;SDS011;516;51.482;7.120;2022-11-23T15:43:51;6.80;;;6.10;;
1054;SDS011;516;51.482;7.120;2022-11-23T15:49:42;10.20;;;7.17;;
1054;SDS011;516;51.482;7.120;2022-11-23T15:55:31;5.60;;;5.10;;
1054;SDS011;516;51.482;7.120;2022-11-23T16:01:20;6.70;;;5.13;;
1054;SDS011;516;51.482;7.120;2022-11-23T16:13:32;10.73;;;5.60;;
1054;SDS011;516;51.482;7.120;2022-11-23T16:23:10;7.73;;;4.70;;
1054;SDS011;516;51.482;7.120;2022-11-23T16:29:25;7.23;;;4.93;;
1054;SDS011;516;51.482;7.120;2022-11-23T16:35:16;5.77;;;4.43;;
1054;SDS011;516;51.482;7.120;2022-11-23T16:41:06;4.97;;;3.63;;
1054;SDS011;516;51.482;7.120;2022-11-23T16:56:42;5.50;;;3.07;;
1054;SDS011;516;51.482;7.120;2022-11-23T17:02:31;6.70;;;3.37;;
1054;SDS011;516;51.482;7.120;2022-11-23T17:11:41;6.37;;;3.40;;
1054;SDS011;516;51.482;7.120;2022-11-23T17:17:30;6.13;;;3.47;;
1054;SDS011;516;51.482;7.120;2022-11-23T17:23:20;7.10;;;3.03;;
1054;SDS011;516;51.482;7.120;2022-11-23T17:29:11;5.03;;;3.43;;
1054;SDS011;516;51.482;7.120;2022-11-23T17:35:01;9.60;;;4.20;;
1054;SDS011;516;51.482;7.120;2022-11-23T17:40:51;7.40;;;3.60;;
1054;SDS011;516;51.482;7.120;2022-11-23T17:46:39;8.67;;;3.60;;
1054;SDS011;516;51.482;7.120;2022-11-23T17:52:28;4.53;;;3.37;;
1054;SDS011;516;51.482;7.120;2022-11-23T17:58:16;3.90;;;2.57;;
1054;SDS011;516;51.482;7.120;2022-11-23T18:04:04;3.83;;;3.03;;
1054;SDS011;516;51.482;7.120;2022-11-23T18:09:52;3.63;;;2.97;;
1054;SDS011;516;51.482;7.120;2022-11-23T18:15:42;7.97;;;3.20;;
1054;SDS011;516;51.482;7.120;2022-11-23T18:21:30;6.40;;;2.60;;
1054;SDS011;516;51.482;7.120;2022-11-23T18:27:18;2.57;;;1.93;;
1054;SDS011;516;51.482;7.120;2022-11-23T18:33:05;4.00;;;2.37;;
1054;SDS011;516;51.482;7.120;2022-11-23T18:38:54;2.57;;;2.20;;
1054;SDS011;516;51.482;7.120;2022-11-23T18:44:42;4.90;;;2.70;;
1054;SDS011;516;51.482;7.120;2022-11-23T18:47:08;6.20;;;2.83;;
1054;SDS011;516;51.482;7.120;2022-11-23T18:49:34;4.90;;;2.90;;
1054;SDS011;516;51.482;7.120;2022-11-23T18:55:21;4.03;;;2.93;;
1054;SDS011;516;51.482;7.120;2022-11-23T19:01:10;8.13;;;4.13;;
1054;SDS011;516;51.482;7.120;2022-11-23T19:06:59;4.53;;;3.30;;
1054;SDS011;516;51.482;7.120;2022-11-23T19:12:46;3.97;;;2.50;;
1054;SDS011;516;51.482;7.120;2022-11-23T19:18:34;6.47;;;3.10;;
1054;SDS011;516;51.482;7.120;2022-11-23T19:24:23;5.27;;;4.43;;
1054;SDS011;516;51.482;7.120;2022-11-23T19:30:11;4.07;;;3.43;;
1054;SDS011;516;51.482;7.120;2022-11-23T19:36:07;7.87;;;3.70;;
1054;SDS011;516;51.482;7.120;2022-11-23T19:41:56;7.00;;;3.63;;
1054;SDS011;516;51.482;7.120;2022-11-23T19:57:36;6.00;;;4.07;;
1054;SDS011;516;51.482;7.120;2022-11-23T20:03:24;9.27;;;3.67;;
1054;SDS011;516;51.482;7.120;2022-11-23T20:09:14;5.17;;;3.80;;
1054;SDS011;516;51.482;7.120;2022-11-23T20:15:02;9.43;;;6.37;;
1054;SDS011;516;51.482;7.120;2022-11-23T20:20:51;10.03;;;5.20;;
1054;SDS011;516;51.482;7.120;2022-11-23T20:26:39;9.20;;;3.90;;
1054;SDS011;516;51.482;7.120;2022-11-23T20:32:28;6.77;;;5.93;;
1054;SDS011;516;51.482;7.120;2022-11-23T20:38:16;11.27;;;4.30;;
1054;SDS011;516;51.482;7.120;2022-11-23T20:44:13;19.57;;;5.33;;
1054;SDS011;516;51.482;7.120;2022-11-23T20:50:49;7.60;;;4.57;;
1054;SDS011;516;51.482;7.120;2022-11-23T20:56:37;7.80;;;4.20;;
1054;SDS011;516;51.482;7.120;2022-11-23T21:02:27;8.37;;;4.43;;
1054;SDS011;516;51.482;7.120;2022-11-23T21:08:15;9.00;;;5.90;;
1054;SDS011;516;51.482;7.120;2022-11-23T21:14:13;9.43;;;4.80;;
1054;SDS011;516;51.482;7.120;2022-11-23T21:20:04;22.47;;;6.37;;
1054;SDS011;516;51.482;7.120;2022-11-23T21:25:52;12.97;;;6.87;;
1054;SDS011;516;51.482;7.120;2022-11-23T21:31:41;13.53;;;9.50;;
1054;SDS011;516;51.482;7.120;2022-11-23T21:37:31;12.23;;;6.30;;
1054;SDS011;516;51.482;7.120;2022-11-23T21:43:18;11.00;;;6.77;;
1054;SDS011;516;51.482;7.120;2022-11-23T21:52:34;16.10;;;8.10;;
1054;SDS011;516;51.482;7.120;2022-11-23T21:58:22;7.90;;;4.70;;
1054;SDS011;516;51.482;7.120;2022-11-23T22:04:11;9.33;;;3.47;;
1054;SDS011;516;51.482;7.120;2022-11-23T22:10:01;11.13;;;4.30;;
1054;SDS011;516;51.482;7.120;2022-11-23T22:15:49;14.00;;;5.80;;
1054;SDS011;516;51.482;7.120;2022-11-23T22:21:38;13.13;;;4.60;;
1054;SDS011;516;51.482;7.120;2022-11-23T22:27:26;9.73;;;4.23;;
1054;SDS011;516;51.482;7.120;2022-11-23T22:33:14;11.03;;;3.90;;
1054;SDS011;516;51.482;7.120;2022-11-23T22:39:03;9.87;;;5.80;;
1054;SDS011;516;51.482;7.120;2022-11-23T22:44:51;16.90;;;4.60;;
1054;SDS011;516;51.482;7.120;2022-11-23T22:50:28;9.13;;;4.73;;
1054;SDS011;516;51.482;7.120;2022-11-23T22:56:16;15.37;;;5.03;;
1054;SDS011;516;51.482;7.120;2022-11-23T22:58:44;11.37;;;4.07;;
1054;SDS011;516;51.482;7.120;2022-11-23T23:01:11;8.73;;;3.43;;
1054;SDS011;516;51.482;7.120;2022-11-23T23:07:02;19.57;;;5.33;;
1054;SDS011;516;51.482;7.120;2022-11-23T23:12:50;15.70;;;5.10;;
1054;SDS011;516;51.482;7.120;2022-11-23T23:18:41;8.80;;;5.20;;
1054;SDS011;516;51.482;7.120;2022-11-23T23:24:29;8.40;;;4.13;;
1054;SDS011;516;51.482;7.120;2022-11-23T23:30:17;18.03;;;3.60;;
1054;SDS011;516;51.482;7.120;2022-11-23T23:36:07;12.63;;;4.10;;
1054;SDS011;516;51.482;7.120;2022-11-23T23:41:57;11.80;;;3.13;;
1054;SDS011;516;51.482;7.120;2022-11-23T23:47:45;6.27;;;4.17;;
1054;SDS011;516;51.482;7.120;2022-11-23T23:53:33;13.60;;;4.20;;
1054;SDS011;516;51.482;7.120;2022-11-23T23:59:21;10.90;;;4.07;;
